createdAt,value
2023-05-14T00:00:37.994Z,10.51
2023-05-14T00:01:38.029Z,10.51
2023-05-14T00:02:38.066Z,10.48
2023-05-14T00:03:38.088Z,10.49
2023-05-14T00:04:38.092Z,10.46
2023-05-14T00:05:38.048Z,10.46
2023-05-14T00:06:38.048Z,10.45
2023-05-14T00:07:38.080Z,10.45
2023-05-14T00:08:38.071Z,10.44
2023-05-14T00:09:38.076Z,10.42
2023-05-14T00:10:38.085Z,10.42
2023-05-14T00:11:38.102Z,10.40
2023-05-14T00:12:38.113Z,10.39
2023-05-14T00:13:38.129Z,10.36
2023-05-14T00:14:38.144Z,10.33
2023-05-14T00:15:38.190Z,10.34
2023-05-14T00:16:38.239Z,10.35
2023-05-14T00:17:38.183Z,10.35
2023-05-14T00:18:38.215Z,10.33
2023-05-14T00:19:38.204Z,10.34
2023-05-14T00:20:38.212Z,10.31
2023-05-14T00:21:38.235Z,10.30
2023-05-14T00:22:38.256Z,10.30
2023-05-14T00:23:38.270Z,10.28
2023-05-14T00:24:38.267Z,10.29
2023-05-14T00:25:38.282Z,10.26
2023-05-14T00:26:38.291Z,10.26
2023-05-14T00:27:38.309Z,10.24
2023-05-14T00:28:38.324Z,10.21
2023-05-14T00:29:38.339Z,10.18
2023-05-14T00:30:38.346Z,10.21
2023-05-14T00:31:38.458Z,10.18
2023-05-14T00:32:38.388Z,10.17
2023-05-14T00:33:38.395Z,10.16
2023-05-14T00:51:38.907Z,10.03
2023-05-14T00:52:38.635Z,10.02
2023-05-14T00:53:38.648Z,10.05
2023-05-14T00:54:38.662Z,10.02
2023-05-14T00:55:38.679Z,10.02
2023-05-14T00:56:38.691Z,9.98
2023-05-14T00:57:38.697Z,10.00
2023-05-14T00:58:38.707Z,10.01
2023-05-14T00:59:38.725Z,10.03
2023-05-14T01:00:38.761Z,10.01
2023-05-14T01:01:38.753Z,10.02
2023-05-14T01:02:38.875Z,10.01
2023-05-14T01:03:38.832Z,9.99
2023-05-14T01:04:38.782Z,9.97
2023-05-14T01:05:38.788Z,9.99
2023-05-14T01:06:38.796Z,9.99
2023-05-14T01:07:38.819Z,10.02
2023-05-14T01:08:38.826Z,10.01
2023-05-14T01:09:38.845Z,10.01
2023-05-14T01:10:38.853Z,10.03
2023-05-14T01:11:38.862Z,10.03
2023-05-14T01:12:38.863Z,10.03
2023-05-14T01:13:38.881Z,10.04
2023-05-14T01:14:38.890Z,10.06
2023-05-14T01:15:38.909Z,10.03
2023-05-14T01:16:38.937Z,10.04
2023-05-14T01:17:38.947Z,10.05
2023-05-14T01:18:38.956Z,10.03
2023-05-14T01:19:38.966Z,10.03
2023-05-14T01:20:38.970Z,10.04
2023-05-14T01:21:38.992Z,10.06
2023-05-14T01:22:38.998Z,10.04
2023-05-14T01:23:39.011Z,10.05
2023-05-14T01:24:39.025Z,10.03
2023-05-14T01:25:39.043Z,10.03
2023-05-14T01:26:39.044Z,10.02
2023-05-14T01:27:39.054Z,10.03
2023-05-14T01:28:39.064Z,10.04
2023-05-14T01:29:39.082Z,10.02
2023-05-14T01:30:39.100Z,10.02
2023-05-14T01:31:39.132Z,10.05
2023-05-14T01:32:39.162Z,10.05
2023-05-14T01:33:39.140Z,10.04
2023-05-14T01:34:39.145Z,10.03
2023-05-14T01:35:39.171Z,10.03
2023-05-14T01:36:39.182Z,10.02
2023-05-14T01:37:39.197Z,10.02
2023-05-14T01:38:39.207Z,10.02
2023-05-14T01:39:39.226Z,9.99
2023-05-14T01:40:39.237Z,9.98
2023-05-14T01:41:39.268Z,9.97
2023-05-14T01:42:39.269Z,9.97
2023-05-14T01:43:39.287Z,9.97
2023-05-14T01:44:39.300Z,9.96
2023-05-14T01:45:39.326Z,9.94
2023-05-14T01:46:39.370Z,9.94
2023-05-14T01:47:39.368Z,9.94
2023-05-14T01:48:39.346Z,9.90
2023-05-14T01:49:39.353Z,9.92
2023-05-14T01:50:39.364Z,9.90
2023-05-14T01:51:39.375Z,9.91
2023-05-14T01:52:39.388Z,9.86
2023-05-14T01:53:39.389Z,9.88
2023-05-14T01:54:39.400Z,9.86
2023-05-14T01:55:39.408Z,9.85
2023-05-14T01:56:39.413Z,9.85
2023-05-14T01:57:39.415Z,9.86
2023-05-14T01:58:39.426Z,9.84
2023-05-14T01:59:39.428Z,9.83
2023-05-14T02:00:39.439Z,9.82
2023-05-14T02:01:39.465Z,9.82
2023-05-14T02:02:39.490Z,9.80
2023-05-14T02:03:39.472Z,9.80
2023-05-14T02:04:39.470Z,9.78
2023-05-14T02:05:39.477Z,9.79
2023-05-14T02:06:39.491Z,9.74
2023-05-14T02:07:39.496Z,9.76
2023-05-14T02:08:39.508Z,9.73
2023-05-14T02:09:39.511Z,9.69
2023-05-14T02:10:39.512Z,9.71
2023-05-14T02:11:39.537Z,9.67
2023-05-14T02:12:39.528Z,9.66
2023-05-14T02:13:39.533Z,9.67
2023-05-14T02:14:39.539Z,9.64
2023-05-14T02:15:39.581Z,9.64
2023-05-14T02:16:39.553Z,9.63
2023-05-14T02:17:39.596Z,9.61
2023-05-14T02:18:39.579Z,9.60
2023-05-14T02:19:39.572Z,9.59
2023-05-14T02:20:39.579Z,9.58
2023-05-14T02:21:39.584Z,9.58
2023-05-14T02:22:39.594Z,9.58
2023-05-14T02:23:41.824Z,9.60
2023-05-14T02:24:39.608Z,9.58
2023-05-14T02:25:39.620Z,9.57
2023-05-14T02:26:39.630Z,9.56
2023-05-14T02:27:39.633Z,9.56
2023-05-14T02:28:39.638Z,9.57
2023-05-14T02:29:39.647Z,9.58
2023-05-14T02:30:39.651Z,9.59
2023-05-14T02:31:39.682Z,9.58
2023-05-14T02:32:39.705Z,9.59
2023-05-14T02:33:39.697Z,9.58
2023-05-14T02:34:39.679Z,9.61
2023-05-14T02:35:39.680Z,9.57
2023-05-14T02:36:39.690Z,9.57
2023-05-14T02:37:39.705Z,9.57
2023-05-14T02:38:39.709Z,9.56
2023-05-14T02:39:39.715Z,9.59
2023-05-14T02:40:39.726Z,9.56
2023-05-14T02:41:39.732Z,9.57
2023-05-14T02:42:39.743Z,9.57
2023-05-14T02:43:39.748Z,9.59
2023-05-14T02:44:39.756Z,9.57
2023-05-14T02:45:39.765Z,9.56
2023-05-14T02:46:39.789Z,9.55
2023-05-14T02:47:39.777Z,9.54
2023-05-14T02:48:39.784Z,9.54
2023-05-14T02:49:39.790Z,9.53
2023-05-14T02:50:39.796Z,9.51
2023-05-14T02:51:39.806Z,9.52
2023-05-14T02:52:39.808Z,9.53
2023-05-14T02:53:39.819Z,9.53
2023-05-14T02:54:39.819Z,9.51
2023-05-14T02:55:39.832Z,9.50
2023-05-14T02:56:39.847Z,9.50
2023-05-14T02:57:39.844Z,9.48
2023-05-14T02:58:39.848Z,9.49
2023-05-14T02:59:39.852Z,9.49
2023-05-14T03:00:39.870Z,9.47
2023-05-14T03:01:39.860Z,9.45
2023-05-14T03:02:39.949Z,9.43
2023-05-14T03:03:39.873Z,9.42
2023-05-14T03:04:39.882Z,9.41
2023-05-14T03:05:39.884Z,9.39
2023-05-14T03:06:39.890Z,9.38
2023-05-14T03:07:39.896Z,9.37
2023-05-14T03:08:39.905Z,9.37
2023-05-14T03:09:39.906Z,9.35
2023-05-14T03:10:39.930Z,9.33
2023-05-14T03:11:39.923Z,9.33
2023-05-14T03:12:39.925Z,9.31
2023-05-14T03:13:39.930Z,9.31
2023-05-14T03:14:39.940Z,9.31
2023-05-14T03:15:39.946Z,9.34
2023-05-14T03:16:39.981Z,9.32
2023-05-14T03:17:39.982Z,9.33
2023-05-14T03:18:39.996Z,9.33
2023-05-14T03:19:39.979Z,9.32
2023-05-14T03:20:39.978Z,9.34
2023-05-14T03:21:39.999Z,9.32
2023-05-14T03:22:39.989Z,9.30
2023-05-14T03:23:39.999Z,9.31
2023-05-14T03:24:40.029Z,9.33
2023-05-14T03:25:40.014Z,9.32
2023-05-14T03:26:40.026Z,9.30
2023-05-14T03:27:40.034Z,9.31
2023-05-14T03:28:40.041Z,9.32
2023-05-14T03:29:40.051Z,9.27
2023-05-14T03:30:40.094Z,9.28
2023-05-14T03:31:40.058Z,9.27
2023-05-14T03:32:40.127Z,9.28
2023-05-14T03:33:40.077Z,9.29
2023-05-14T03:34:40.086Z,9.28
2023-05-14T03:35:40.092Z,9.28
2023-05-14T03:36:40.100Z,9.28
2023-05-14T03:37:40.111Z,9.30
2023-05-14T03:38:40.112Z,9.31
2023-05-14T03:39:40.119Z,9.30
2023-05-14T03:40:40.122Z,9.31
2023-05-14T03:41:40.127Z,9.31
2023-05-14T03:42:40.133Z,9.32
2023-05-14T03:43:40.143Z,9.34
2023-05-14T03:44:40.144Z,9.37
2023-05-14T03:45:40.155Z,9.36
2023-05-14T03:46:40.157Z,9.35
2023-05-14T03:47:40.176Z,9.36
2023-05-14T03:48:40.182Z,9.36
2023-05-14T03:49:40.174Z,9.38
2023-05-14T03:50:40.180Z,9.39
2023-05-14T03:51:40.190Z,9.42
2023-05-14T03:52:40.193Z,9.41
2023-05-14T03:53:40.205Z,9.42
2023-05-14T03:54:40.202Z,9.42
2023-05-14T03:55:40.218Z,9.44
2023-05-14T03:56:40.221Z,9.45
2023-05-14T03:57:40.220Z,9.47
2023-05-14T03:58:40.230Z,9.48
2023-05-14T03:59:40.232Z,9.50
2023-05-14T04:00:40.244Z,9.53
2023-05-14T04:01:40.252Z,9.57
2023-05-14T04:02:40.363Z,9.58
2023-05-14T04:03:40.334Z,9.58
2023-05-14T04:04:40.296Z,9.57
2023-05-14T04:05:40.280Z,9.62
2023-05-14T04:06:40.293Z,9.63
2023-05-14T04:07:40.298Z,9.66
2023-05-14T04:08:40.308Z,9.66
2023-05-14T04:09:40.313Z,9.68
2023-05-14T04:10:40.324Z,9.70
2023-05-14T04:11:40.331Z,9.75
2023-05-14T04:12:40.339Z,9.76
2023-05-14T04:13:40.349Z,9.76
2023-05-14T04:14:40.358Z,9.78
2023-05-14T04:15:40.376Z,9.79
2023-05-14T04:16:40.440Z,9.81
2023-05-14T04:17:40.426Z,9.83
2023-05-14T04:18:40.415Z,9.86
2023-05-14T04:19:40.414Z,9.89
2023-05-14T04:20:40.416Z,9.91
2023-05-14T04:21:40.414Z,9.94
2023-05-14T04:22:40.439Z,9.98
2023-05-14T04:23:40.431Z,10.04
2023-05-14T04:24:40.439Z,10.06
2023-05-14T04:25:40.453Z,10.12
2023-05-14T04:26:40.453Z,10.14
2023-05-14T04:27:40.469Z,10.16
2023-05-14T04:28:40.494Z,10.20
2023-05-14T04:29:40.479Z,10.22
2023-05-14T04:30:40.484Z,10.24
2023-05-14T04:31:40.504Z,10.28
2023-05-14T04:32:40.496Z,10.29
2023-05-14T04:33:40.501Z,10.30
2023-05-14T04:34:40.510Z,10.31
2023-05-14T04:35:40.513Z,10.34
2023-05-14T04:36:40.522Z,10.35
2023-05-14T04:37:40.558Z,10.39
2023-05-14T04:38:40.532Z,10.42
2023-05-14T04:39:40.537Z,10.45
2023-05-14T04:40:40.547Z,10.47
2023-05-14T04:41:40.551Z,10.49
2023-05-14T04:42:40.554Z,10.51
2023-05-14T04:43:40.566Z,10.55
2023-05-14T04:44:40.568Z,10.59
2023-05-14T04:45:40.614Z,10.60
2023-05-14T04:46:40.582Z,10.63
2023-05-14T04:47:40.601Z,10.66
2023-05-14T04:48:40.595Z,10.70
2023-05-14T04:49:40.601Z,10.72
2023-05-14T04:50:40.613Z,10.73
2023-05-14T04:51:40.609Z,10.79
2023-05-14T04:52:40.640Z,10.82
2023-05-14T04:53:40.622Z,10.84
2023-05-14T04:54:40.656Z,10.91
2023-05-14T04:55:40.632Z,10.94
2023-05-14T04:56:40.640Z,10.95
2023-05-14T04:57:40.648Z,10.98
2023-05-14T04:58:40.652Z,11.01
2023-05-14T04:59:40.657Z,11.05
2023-05-14T05:00:40.667Z,11.10
2023-05-14T05:01:40.763Z,11.15
2023-05-14T05:02:40.696Z,11.18
2023-05-14T05:03:40.701Z,11.22
2023-05-14T05:04:40.702Z,11.27
2023-05-14T05:05:40.711Z,11.29
2023-05-14T05:06:40.718Z,11.35
2023-05-14T05:07:40.726Z,11.37
2023-05-14T05:08:40.733Z,11.42
2023-05-14T05:09:40.745Z,11.45
2023-05-14T05:10:40.746Z,11.49
2023-05-14T05:11:40.754Z,11.51
2023-05-14T05:12:40.761Z,11.57
2023-05-14T05:13:40.766Z,11.60
2023-05-14T05:14:40.776Z,11.65
2023-05-14T05:15:40.788Z,11.68
2023-05-14T05:16:40.785Z,11.72
2023-05-14T05:17:40.816Z,11.75
2023-05-14T05:18:40.817Z,11.78
2023-05-14T05:19:43.951Z,11.81
2023-05-14T05:20:40.809Z,11.84
2023-05-14T05:21:40.868Z,11.87
2023-05-14T05:22:40.822Z,11.89
2023-05-14T05:23:40.828Z,11.95
2023-05-14T05:24:40.838Z,11.98
2023-05-14T05:25:40.840Z,12.02
2023-05-14T05:26:40.846Z,12.05
2023-05-14T05:27:40.856Z,12.07
2023-05-14T05:28:40.863Z,12.11
2023-05-14T05:29:40.880Z,12.14
2023-05-14T05:30:40.886Z,12.17
2023-05-14T05:31:40.937Z,12.22
2023-05-14T05:32:40.942Z,12.23
2023-05-14T05:33:40.908Z,12.24
2023-05-14T05:34:40.929Z,12.26
2023-05-14T05:35:40.928Z,12.28
2023-05-14T05:36:40.929Z,12.31
2023-05-14T05:37:40.933Z,12.34
2023-05-14T05:38:40.950Z,12.36
2023-05-14T05:39:40.953Z,12.39
2023-05-14T05:40:40.953Z,12.43
2023-05-14T05:41:40.956Z,12.44
2023-05-14T05:42:40.966Z,12.47
2023-05-14T05:43:40.967Z,12.51
2023-05-14T05:44:40.974Z,12.54
2023-05-14T05:45:40.980Z,12.59
2023-05-14T05:46:41.014Z,12.62
2023-05-14T05:47:41.072Z,12.64
2023-05-14T05:48:41.001Z,12.71
2023-05-14T05:49:41.016Z,12.75
2023-05-14T05:50:41.017Z,12.79
2023-05-14T05:51:41.019Z,12.83
2023-05-14T05:52:41.033Z,12.87
2023-05-14T05:53:41.032Z,12.92
2023-05-14T05:54:41.037Z,12.95
2023-05-14T05:55:41.046Z,12.99
2023-05-14T05:56:41.050Z,13.05
2023-05-14T05:57:41.063Z,13.10
2023-05-14T05:58:41.066Z,13.15
2023-05-14T05:59:41.072Z,13.22
2023-05-14T06:00:41.078Z,13.27
2023-05-14T06:01:41.099Z,13.30
2023-05-14T06:02:41.161Z,13.36
2023-05-14T06:03:41.097Z,13.41
2023-05-14T06:04:41.104Z,13.45
2023-05-14T06:05:41.176Z,13.50
2023-05-14T06:06:41.116Z,13.57
2023-05-14T06:07:41.127Z,13.62
2023-05-14T06:08:41.128Z,13.65
2023-05-14T06:09:41.138Z,13.70
2023-05-14T06:10:41.152Z,13.75
2023-05-14T06:11:41.156Z,13.80
2023-05-14T06:12:41.163Z,13.84
2023-05-14T06:13:41.166Z,13.90
2023-05-14T06:14:41.175Z,13.94
2023-05-14T06:15:41.183Z,14.00
2023-05-14T06:16:41.254Z,14.06
2023-05-14T06:17:41.219Z,14.10
2023-05-14T06:18:41.236Z,14.15
2023-05-14T06:19:41.206Z,14.21
2023-05-14T06:20:41.213Z,14.27
2023-05-14T06:21:41.222Z,14.32
2023-05-14T06:22:41.230Z,14.38
2023-05-14T06:23:41.244Z,14.42
2023-05-14T06:24:41.243Z,14.48
2023-05-14T06:25:41.260Z,14.51
2023-05-14T06:26:41.253Z,14.56
2023-05-14T06:27:41.261Z,14.61
2023-05-14T06:28:41.265Z,14.64
2023-05-14T06:29:41.286Z,14.67
2023-05-14T06:30:41.276Z,14.71
2023-05-14T06:31:41.307Z,14.76
2023-05-14T06:32:41.339Z,14.79
2023-05-14T06:33:41.301Z,14.89
2023-05-14T06:34:41.308Z,14.91
2023-05-14T06:35:41.317Z,14.93
2023-05-14T06:36:41.326Z,14.96
2023-05-14T06:37:41.326Z,14.99
2023-05-14T06:38:41.347Z,15.03
2023-05-14T06:39:41.340Z,15.09
2023-05-14T06:40:41.358Z,15.13
2023-05-14T06:41:41.361Z,15.18
2023-05-14T06:42:41.371Z,15.19
2023-05-14T06:43:41.380Z,15.22
2023-05-14T06:44:41.395Z,15.25
2023-05-14T06:45:41.393Z,15.29
2023-05-14T06:46:41.406Z,15.35
2023-05-14T06:47:41.471Z,15.37
2023-05-14T06:48:41.439Z,15.42
2023-05-14T06:49:41.417Z,15.46
2023-05-14T06:50:41.420Z,15.50
2023-05-14T06:51:41.428Z,15.53
2023-05-14T06:52:41.433Z,15.55
2023-05-14T06:53:41.488Z,15.58
2023-05-14T06:54:41.449Z,15.61
2023-05-14T06:55:41.475Z,15.65
2023-05-14T06:56:41.466Z,15.66
2023-05-14T06:57:41.467Z,15.71
2023-05-14T06:58:41.487Z,15.72
2023-05-14T06:59:41.493Z,15.73
2023-05-14T07:00:41.494Z,15.75
2023-05-14T07:01:41.511Z,15.79
2023-05-14T07:02:41.541Z,15.82
2023-05-14T07:03:41.515Z,15.88
2023-05-14T07:04:41.656Z,15.89
2023-05-14T07:05:41.529Z,15.91
2023-05-14T07:06:41.526Z,15.92
2023-05-14T07:07:41.538Z,15.93
2023-05-14T07:08:41.548Z,15.94
2023-05-14T07:09:41.553Z,15.94
2023-05-14T07:10:41.556Z,15.95
2023-05-14T07:11:41.565Z,15.98
2023-05-14T07:12:41.571Z,16.01
2023-05-14T07:13:41.572Z,16.03
2023-05-14T07:14:41.588Z,16.04
2023-05-14T07:15:41.592Z,16.05
2023-05-14T07:16:41.652Z,16.09
2023-05-14T07:17:41.626Z,16.14
2023-05-14T07:18:41.626Z,16.18
2023-05-14T07:19:41.620Z,16.21
2023-05-14T07:20:41.625Z,16.24
2023-05-14T07:21:41.632Z,16.26
2023-05-14T07:22:41.641Z,16.26
2023-05-14T07:23:41.651Z,16.28
2023-05-14T07:24:41.653Z,16.30
2023-05-14T07:25:41.659Z,16.34
2023-05-14T07:26:41.672Z,16.38
2023-05-14T07:27:41.681Z,16.43
2023-05-14T07:28:41.678Z,16.47
2023-05-14T07:29:41.687Z,16.51
2023-05-14T07:30:41.692Z,16.55
2023-05-14T07:31:41.718Z,16.58
2023-05-14T07:32:41.724Z,16.61
2023-05-14T07:33:41.723Z,16.64
2023-05-14T07:34:41.723Z,16.69
2023-05-14T07:35:41.728Z,16.75
2023-05-14T07:36:41.725Z,16.78
2023-05-14T07:37:41.738Z,16.82
2023-05-14T07:38:41.744Z,16.86
2023-05-14T07:39:41.772Z,16.87
2023-05-14T07:40:41.767Z,16.91
2023-05-14T07:41:41.765Z,16.94
2023-05-14T07:42:41.776Z,16.97
2023-05-14T07:43:41.781Z,17.01
2023-05-14T07:44:41.786Z,17.03
2023-05-14T07:45:41.808Z,17.07
2023-05-14T07:46:41.804Z,17.09
2023-05-14T07:47:41.876Z,17.14
2023-05-14T07:48:41.857Z,17.17
2023-05-14T07:49:41.818Z,17.22
2023-05-14T07:50:41.829Z,17.25
2023-05-14T07:51:41.828Z,17.29
2023-05-14T07:52:41.857Z,17.31
2023-05-14T07:53:41.843Z,17.35
2023-05-14T07:54:41.852Z,17.37
2023-05-14T07:55:41.854Z,17.41
2023-05-14T07:56:41.865Z,17.45
2023-05-14T07:57:41.869Z,17.49
2023-05-14T07:58:41.877Z,17.54
2023-05-14T07:59:41.883Z,17.55
2023-05-14T08:00:41.893Z,17.60
2023-05-14T08:01:41.935Z,17.64
2023-05-14T08:02:41.933Z,17.72
2023-05-14T08:03:41.960Z,17.73
2023-05-14T08:04:41.926Z,17.79
2023-05-14T08:05:41.937Z,17.83
2023-05-14T08:06:41.944Z,17.87
2023-05-14T08:07:41.946Z,17.90
2023-05-14T08:08:41.953Z,17.93
2023-05-14T08:09:41.958Z,17.97
2023-05-14T08:10:42.029Z,17.97
2023-05-14T08:11:41.986Z,18.00
2023-05-14T08:12:41.986Z,18.01
2023-05-14T08:13:41.989Z,18.02
2023-05-14T08:14:42.001Z,18.03
2023-05-14T08:15:42.009Z,18.07
2023-05-14T08:16:42.048Z,18.08
2023-05-14T08:17:42.042Z,18.10
2023-05-14T08:18:42.047Z,18.07
2023-05-14T08:19:42.030Z,18.08
2023-05-14T08:20:42.038Z,18.08
2023-05-14T08:21:42.046Z,18.07
2023-05-14T08:22:42.053Z,18.08
2023-05-14T08:23:42.057Z,18.07
2023-05-14T08:24:42.065Z,18.09
2023-05-14T08:25:42.069Z,18.12
2023-05-14T08:26:42.075Z,18.13
2023-05-14T08:27:42.088Z,18.13
2023-05-14T08:28:42.087Z,18.18
2023-05-14T08:29:42.100Z,18.22
2023-05-14T08:30:42.120Z,18.25
2023-05-14T08:31:42.122Z,18.25
2023-05-14T08:32:42.130Z,18.27
2023-05-14T08:33:42.132Z,18.27
2023-05-14T08:34:43.938Z,18.29
2023-05-14T08:35:42.143Z,18.32
2023-05-14T08:36:42.154Z,18.34
2023-05-14T08:37:42.159Z,18.31
2023-05-14T08:38:42.164Z,18.33
2023-05-14T08:39:42.175Z,18.35
2023-05-14T08:40:42.181Z,18.38
2023-05-14T08:41:42.190Z,18.42
2023-05-14T08:42:42.197Z,18.47
2023-05-14T08:43:42.200Z,18.50
2023-05-14T08:44:42.208Z,18.52
2023-05-14T08:45:42.215Z,18.56
2023-05-14T08:46:42.231Z,18.58
2023-05-14T08:47:42.241Z,18.60
2023-05-14T08:48:42.247Z,18.61
2023-05-14T08:49:42.242Z,18.66
2023-05-14T08:50:42.248Z,18.67
2023-05-14T08:51:42.255Z,18.70
2023-05-14T08:52:42.262Z,18.71
2023-05-14T08:53:42.270Z,18.72
2023-05-14T08:54:42.278Z,18.72
2023-05-14T08:55:42.283Z,18.73
2023-05-14T08:56:42.290Z,18.74
2023-05-14T08:57:42.306Z,18.78
2023-05-14T08:58:42.304Z,18.80
2023-05-14T08:59:42.309Z,18.83
2023-05-14T09:00:42.319Z,18.86
2023-05-14T09:01:42.385Z,18.86
2023-05-14T09:02:42.406Z,18.87
2023-05-14T09:03:42.362Z,18.89
2023-05-14T09:04:42.359Z,18.89
2023-05-14T09:05:42.359Z,18.89
2023-05-14T09:06:42.377Z,18.89
2023-05-14T09:07:42.378Z,18.89
2023-05-14T09:08:42.390Z,18.91
2023-05-14T09:09:42.392Z,18.92
2023-05-14T09:10:42.404Z,18.92
2023-05-14T09:11:42.409Z,18.95
2023-05-14T09:12:42.420Z,18.97
2023-05-14T09:13:42.432Z,19.00
2023-05-14T09:14:42.437Z,19.03
2023-05-14T09:15:42.452Z,19.06
2023-05-14T09:16:42.594Z,19.09
2023-05-14T09:17:42.486Z,19.11
2023-05-14T09:18:42.503Z,19.13
2023-05-14T09:19:42.480Z,19.15
2023-05-14T09:20:42.499Z,19.17
2023-05-14T09:21:42.496Z,19.16
2023-05-14T09:22:42.507Z,19.18
2023-05-14T09:23:42.526Z,19.20
2023-05-14T09:24:42.526Z,19.23
2023-05-14T09:25:42.526Z,19.26
2023-05-14T09:26:42.540Z,19.29
2023-05-14T09:27:42.549Z,19.32
2023-05-14T09:28:42.566Z,19.32
2023-05-14T09:29:42.562Z,19.34
2023-05-14T09:30:42.573Z,19.36
2023-05-14T09:31:42.611Z,19.37
2023-05-14T09:32:42.603Z,19.37
2023-05-14T09:33:42.588Z,19.42
2023-05-14T09:34:42.599Z,19.44
2023-05-14T09:35:42.603Z,19.46
2023-05-14T09:36:42.608Z,19.50
2023-05-14T09:37:42.620Z,19.53
2023-05-14T09:38:42.641Z,19.58
2023-05-14T09:39:42.634Z,19.56
2023-05-14T09:40:42.650Z,19.56
2023-05-14T09:41:42.649Z,19.57
2023-05-14T09:42:42.658Z,19.60
2023-05-14T09:43:42.666Z,19.59
2023-05-14T09:44:42.679Z,19.58
2023-05-14T09:45:42.688Z,19.57
2023-05-14T09:46:42.705Z,19.59
2023-05-14T09:47:42.769Z,19.57
2023-05-14T09:48:42.748Z,19.59
2023-05-14T09:49:42.725Z,19.59
2023-05-14T09:50:42.735Z,19.55
2023-05-14T09:51:42.746Z,19.57
2023-05-14T09:52:42.757Z,19.58
2023-05-14T09:53:42.758Z,19.62
2023-05-14T09:54:42.766Z,19.66
2023-05-14T09:55:42.774Z,19.72
2023-05-14T09:56:42.782Z,19.76
2023-05-14T09:57:42.791Z,19.83
2023-05-14T09:58:42.799Z,19.86
2023-05-14T09:59:42.804Z,19.90
2023-05-14T10:00:42.820Z,19.94
2023-05-14T10:01:42.942Z,19.99
2023-05-14T10:02:42.859Z,20.04
2023-05-14T10:03:42.836Z,20.10
2023-05-14T10:04:42.902Z,20.16
2023-05-14T10:05:42.850Z,20.24
2023-05-14T10:06:42.861Z,20.34
2023-05-14T10:07:42.864Z,20.46
2023-05-14T10:08:42.879Z,20.56
2023-05-14T10:09:42.887Z,20.59
2023-05-14T10:10:42.895Z,20.70
2023-05-14T10:11:42.956Z,20.79
2023-05-14T10:12:42.912Z,20.91
2023-05-14T10:13:42.933Z,21.01
2023-05-14T10:14:42.932Z,21.10
2023-05-14T10:15:42.939Z,21.20
2023-05-14T10:16:42.963Z,21.34
2023-05-14T10:17:42.962Z,21.48
2023-05-14T10:18:42.997Z,21.61
2023-05-14T10:19:42.978Z,21.76
2023-05-14T10:20:42.984Z,21.93
2023-05-14T10:21:42.988Z,22.13
2023-05-14T10:22:43.000Z,22.29
2023-05-14T10:23:43.010Z,22.41
2023-05-14T10:24:43.018Z,22.54
2023-05-14T10:25:43.027Z,22.66
2023-05-14T10:26:43.034Z,22.80
2023-05-14T10:27:43.048Z,22.93
2023-05-14T10:28:43.060Z,23.07
2023-05-14T10:29:43.059Z,23.18
2023-05-14T10:30:43.069Z,23.29
2023-05-14T10:31:43.192Z,23.41
2023-05-14T10:32:43.093Z,23.51
2023-05-14T10:33:43.098Z,23.60
2023-05-14T10:34:43.113Z,23.73
2023-05-14T10:35:43.108Z,23.79
2023-05-14T10:36:43.116Z,23.85
2023-05-14T10:37:43.127Z,23.89
2023-05-14T10:38:43.131Z,23.90
2023-05-14T10:39:43.143Z,23.94
2023-05-14T10:40:43.152Z,23.99
2023-05-14T10:41:43.158Z,24.01
2023-05-14T10:42:43.183Z,23.98
2023-05-14T10:43:43.180Z,23.98
2023-05-14T10:44:43.182Z,24.03
2023-05-14T10:45:43.192Z,24.06
2023-05-14T10:46:43.217Z,24.17
2023-05-14T10:47:43.237Z,24.30
2023-05-14T10:48:43.210Z,24.39
2023-05-14T10:49:43.998Z,24.49
2023-05-14T10:50:43.248Z,24.56
2023-05-14T10:51:43.281Z,24.61
2023-05-14T10:52:43.246Z,24.65
2023-05-14T10:53:43.377Z,24.55
2023-05-14T10:54:43.257Z,24.44
2023-05-14T10:55:43.280Z,24.37
2023-05-14T10:56:43.275Z,24.28
2023-05-14T10:57:43.281Z,24.22
2023-05-14T10:58:43.291Z,24.24
2023-05-14T10:59:43.302Z,24.28
2023-05-14T11:00:43.307Z,24.34
2023-05-14T11:01:43.330Z,24.34
2023-05-14T11:02:43.335Z,24.36
2023-05-14T11:03:43.394Z,24.36
2023-05-14T11:04:43.342Z,24.40
2023-05-14T11:05:43.348Z,24.44
2023-05-14T11:06:43.364Z,24.40
2023-05-14T11:07:43.367Z,24.40
2023-05-14T11:08:43.379Z,24.46
2023-05-14T11:09:43.388Z,24.49
2023-05-14T11:10:43.395Z,24.46
2023-05-14T11:11:43.406Z,24.49
2023-05-14T11:12:43.420Z,24.50
2023-05-14T11:13:43.423Z,24.52
2023-05-14T11:14:43.435Z,24.51
2023-05-14T11:15:43.438Z,24.52
2023-05-14T11:16:43.498Z,24.50
2023-05-14T11:17:43.502Z,24.53
2023-05-14T11:18:43.470Z,24.49
2023-05-14T11:19:43.492Z,24.44
2023-05-14T11:20:43.496Z,24.38
2023-05-14T11:21:43.535Z,24.34
2023-05-14T11:22:43.505Z,24.35
2023-05-14T11:23:43.510Z,24.35
2023-05-14T11:24:43.518Z,24.37
2023-05-14T11:25:43.528Z,24.40
2023-05-14T11:26:43.537Z,24.40
2023-05-14T11:27:43.553Z,24.50
2023-05-14T11:28:43.558Z,24.50
2023-05-14T11:29:43.570Z,24.49
2023-05-14T11:30:43.580Z,24.50
2023-05-14T11:31:43.608Z,24.40
2023-05-14T11:32:43.659Z,24.39
2023-05-14T11:33:43.611Z,24.42
2023-05-14T11:34:43.625Z,24.48
2023-05-14T11:35:43.629Z,24.54
2023-05-14T11:36:43.647Z,24.53
2023-05-14T11:37:43.649Z,24.55
2023-05-14T11:38:43.658Z,24.63
2023-05-14T11:39:43.670Z,24.67
2023-05-14T11:40:43.683Z,24.72
2023-05-14T11:41:43.693Z,24.74
2023-05-14T11:42:43.698Z,24.69
2023-05-14T11:43:43.714Z,24.65
2023-05-14T11:44:43.724Z,24.66
2023-05-14T11:45:43.733Z,24.76
2023-05-14T11:46:43.753Z,24.83
2023-05-14T11:47:43.794Z,24.93
2023-05-14T11:48:43.758Z,25.06
2023-05-14T11:49:43.764Z,25.12
2023-05-14T11:50:43.773Z,25.11
2023-05-14T11:51:43.784Z,25.07
2023-05-14T11:52:43.795Z,25.07
2023-05-14T11:53:43.798Z,25.04
2023-05-14T11:54:43.808Z,25.03
2023-05-14T11:55:43.823Z,25.07
2023-05-14T11:56:43.832Z,25.14
2023-05-14T11:57:43.840Z,25.11
2023-05-14T11:58:43.846Z,25.11
2023-05-14T11:59:43.853Z,25.13
2023-05-14T12:00:43.869Z,25.11
2023-05-14T12:01:43.870Z,25.13
2023-05-14T12:02:43.989Z,25.06
2023-05-14T12:03:43.952Z,24.98
2023-05-14T12:04:43.900Z,25.00
2023-05-14T12:05:43.902Z,24.97
2023-05-14T12:06:43.908Z,24.96
2023-05-14T12:07:43.917Z,24.94
2023-05-14T12:08:43.925Z,24.96
2023-05-14T12:09:45.236Z,24.93
2023-05-14T12:10:43.936Z,24.92
2023-05-14T12:11:43.946Z,24.92
2023-05-14T12:12:43.955Z,24.96
2023-05-14T12:13:43.967Z,24.88
2023-05-14T12:14:43.976Z,24.73
2023-05-14T12:15:44.014Z,24.65
2023-05-14T12:16:44.035Z,24.59
2023-05-14T12:17:44.023Z,24.50
2023-05-14T12:18:44.050Z,24.40
2023-05-14T12:19:44.015Z,24.34
2023-05-14T12:20:44.025Z,24.28
2023-05-14T12:21:44.041Z,24.28
2023-05-14T12:22:44.042Z,24.24
2023-05-14T12:23:44.054Z,24.18
2023-05-14T12:24:44.063Z,24.14
2023-05-14T12:25:44.079Z,24.11
2023-05-14T12:26:44.088Z,24.06
2023-05-14T12:27:44.098Z,24.01
2023-05-14T12:28:44.102Z,23.95
2023-05-14T12:29:44.110Z,23.85
2023-05-14T12:30:44.120Z,23.73
2023-05-14T12:31:44.169Z,23.61
2023-05-14T12:32:44.155Z,23.51
2023-05-14T12:33:44.140Z,23.34
2023-05-14T12:34:44.144Z,23.24
2023-05-14T12:35:44.158Z,23.19
2023-05-14T12:36:44.165Z,23.18
2023-05-14T12:37:44.195Z,23.17
2023-05-14T12:38:44.181Z,23.17
2023-05-14T12:39:44.189Z,23.10
2023-05-14T12:40:44.203Z,23.06
2023-05-14T12:41:44.206Z,23.01
2023-05-14T12:42:44.213Z,23.01
2023-05-14T12:43:44.221Z,23.00
2023-05-14T12:44:44.230Z,22.97
2023-05-14T12:45:44.264Z,22.96
2023-05-14T12:46:44.259Z,22.90
2023-05-14T12:47:44.282Z,22.87
2023-05-14T12:48:44.275Z,22.82
2023-05-14T12:49:44.282Z,22.78
2023-05-14T12:50:44.289Z,22.68
2023-05-14T12:51:44.296Z,22.60
2023-05-14T12:52:44.307Z,22.54
2023-05-14T12:53:44.319Z,22.53
2023-05-14T12:54:44.337Z,22.48
2023-05-14T12:55:44.334Z,22.51
2023-05-14T12:56:44.341Z,22.53
2023-05-14T12:57:44.355Z,22.53
2023-05-14T12:58:44.359Z,22.56
2023-05-14T12:59:44.369Z,22.54
2023-05-14T13:00:44.397Z,22.55
2023-05-14T13:01:44.383Z,22.53
2023-05-14T13:02:44.517Z,22.56
2023-05-14T13:03:44.424Z,22.58
2023-05-14T13:04:44.423Z,22.54
2023-05-14T13:05:44.413Z,22.49
2023-05-14T13:06:44.428Z,22.56
2023-05-14T13:07:44.441Z,22.56
2023-05-14T13:08:44.444Z,22.59
2023-05-14T13:09:44.450Z,22.61
2023-05-14T13:10:44.460Z,22.67
2023-05-14T13:11:44.464Z,22.75
2023-05-14T13:12:44.484Z,22.78
2023-05-14T13:13:44.479Z,22.81
2023-05-14T13:14:44.493Z,22.84
2023-05-14T13:15:44.504Z,22.88